Summit RJ1H at Prince Rupert on Feb 7th 2024, runway excursion on landing

Last Update: February 23, 2024 / 19:27:24 GMT/Zulu time

Bookmark this article
Incident Facts

Date of incident
Feb 7, 2024

Classification
Incident

Airline
Summit Air

Flight number
SUT-8292

Aircraft Registration
C-FRJY

ICAO Type Designator
RJ1H

Airport ICAO Code
CYPR

A Summit Air Avro RJ-100, registration C-FRJY performing flight SUT-8292 from Nanaimo,BC to Prince Rupert,BC (Canada) with 38 people on board, landed on Prince Rupert's runway 31 but nearing the end of the runway started to slide sideways and went past the end of the runway damaging a runway end light in the process. The aircraft stopped about 30 meters past the runway end facing northeast. The passengers disembarked onto the runway and were bussed to the terminal. There were no injuries and no visible damage to the aircraft. The aircraft subsequently taxied to the apron on its own power.

The Canadian TSB reported the occurrence is being investigated (Class 4).



Metars:
CYPR 071700Z AUTO 01004KT 9SM OVC033 M00/M01 A2990 RMK SLP130=
CYPR 071600Z AUTO 05006KT 9SM OVC033 M01/M01 A2989 RMK SLP124=
CYPR 071500Z AUTO 04003KT 9SM OVC035 M01/M01 A2988 RMK SLP123=
CYPR 071400Z AUTO 06003KT 9SM OVC031 M01/M01 A2987 RMK SLP119=
CYPR 071300Z AUTO 04002KT 9SM OVC031 M02/M02 A2986 RMK SLP115=
CYPR 071246Z AUTO 01003KT 9SM SCT001 OVC031 M02/M02 A2986 RMK SLP114=
CYPR 071229Z AUTO 00000KT 9SM BKN001 M03/M03 A2986 RMK SLP114=
CYPR 071224Z AUTO 00000KT 9SM BKN003 M02/M02 A2986 RMK SLP114=
CYPR 071209Z AUTO 00000KT 9SM FEW003 M02/M02 A2985 RMK SLP113=
CYPR 071200Z AUTO 00000KT 9SM CLR M02/M02 A2985 RMK SLP113=
Aircraft Registration Data
Registration mark
C-FRJY
Country of Registration
Canada
Date of Registration
EieAqmnhfiljihg Subscribe to unlock
Certification Basis
In qiAqhcAAqAchmAq fhhbqqA qmplmbfb qbfilgn Subscribe to unlock
TCDS Ident. No.
Manufacturer
British Aerospace
Aircraft Model / Type
Avro 146 Series RJ100
ICAO Aircraft Type
RJ1H
Year of Manufacture
Serial Number
Aircraft Address / Mode S Code (HEX)
Maximum Take off Mass (MTOM) [kg]
Engine Count
Engine Type
Main Owner
Dk cbiicminqpmi fpl ecceqckpfdcpqfl AffdjcpAAficdAhgdmhmipmqmnjAclqd ihdkjAf kbflqlemjAh pihqfAlAepjghefjmfqkge Subscribe to unlock

Aircraft registration data reproduced and distributed with the permission of the Government of Canada.

Incident Facts

Date of incident
Feb 7, 2024

Classification
Incident

Airline
Summit Air

Flight number
SUT-8292

Aircraft Registration
C-FRJY

ICAO Type Designator
RJ1H

Airport ICAO Code
CYPR

This article is published under license from Avherald.com. © of text by Avherald.com.
Article source

You can read 2 more free articles without a subscription.

Subscribe now and continue reading without any limits!

Are you a subscriber? Login
Subscribe

Read unlimited articles and receive our daily update briefing. Gain better insights into what is happening in commercial aviation safety.

Send tip

Support AeroInside by sending a small tip amount.

Related articles

Newest articles

Subscribe today

Are you researching aviation incidents? Get access to AeroInside Insights, unlimited read access and receive the daily newsletter.

Pick your plan and subscribe

Partner

Blockaviation logo

A new way to document and demonstrate airworthiness compliance and aircraft value. Find out more.

ELITE Logo

ELITE Simulation Solutions is a leading global provider of Flight Simulation Training Devices, IFR training software as well as flight controls and related services. Find out more.

Blue Altitude Logo

Your regulation partner, specialists in aviation safety and compliance; providing training, auditing, and consultancy services. Find out more.

AeroInside Blog
Popular aircraft
Airbus A320
Boeing 737-800
Boeing 737-800 MAX
Popular airlines
American Airlines
United
Delta
Air Canada
Lufthansa
British Airways